createdAt,value
2018-11-10T00:00:53.639Z,991.99
2018-11-10T00:01:53.637Z,992.01
2018-11-10T00:02:53.613Z,991.98
2018-11-10T00:03:53.625Z,991.98
2018-11-10T00:04:53.593Z,991.91
2018-11-10T00:05:53.579Z,991.87
2018-11-10T00:06:53.577Z,991.89
2018-11-10T00:07:53.643Z,991.84
2018-11-10T00:08:53.584Z,991.89
2018-11-10T00:09:53.546Z,991.85
2018-11-10T00:10:53.530Z,991.82
2018-11-10T00:11:53.519Z,991.85
2018-11-10T00:12:53.505Z,991.89
2018-11-10T00:13:53.515Z,991.80
2018-11-10T00:14:53.489Z,991.84
2018-11-10T00:15:53.473Z,991.84
2018-11-10T00:16:53.461Z,991.79
2018-11-10T00:17:53.448Z,991.84
2018-11-10T00:18:53.451Z,991.86
2018-11-10T00:19:53.449Z,991.91
2018-11-10T00:20:53.419Z,991.85
2018-11-10T00:21:53.411Z,991.82
2018-11-10T00:22:53.445Z,991.82
2018-11-10T00:23:53.401Z,991.81
2018-11-10T00:24:53.372Z,991.80
2018-11-10T00:25:53.384Z,991.75
2018-11-10T00:26:53.356Z,991.75
2018-11-10T00:27:53.343Z,991.72
2018-11-10T00:28:53.336Z,991.73
2018-11-10T00:29:53.323Z,991.72
2018-11-10T00:30:53.322Z,991.68
2018-11-10T00:31:53.297Z,991.70
2018-11-10T00:32:53.288Z,991.72
2018-11-10T00:33:53.305Z,991.72
2018-11-10T00:34:53.346Z,991.62
2018-11-10T00:35:53.253Z,991.60
2018-11-10T00:36:53.242Z,991.57
2018-11-10T00:37:53.231Z,991.62
2018-11-10T00:38:53.227Z,991.61
2018-11-10T00:39:53.229Z,991.57
2018-11-10T00:40:53.202Z,991.56
2018-11-10T00:41:53.191Z,991.50
2018-11-10T00:42:53.173Z,991.54
2018-11-10T00:43:53.166Z,991.49
2018-11-10T00:44:53.179Z,991.42
2018-11-10T00:45:53.144Z,991.48
2018-11-10T00:46:53.137Z,991.43
2018-11-10T00:47:53.130Z,991.47
2018-11-10T00:48:53.116Z,991.42
2018-11-10T00:49:53.097Z,991.37
2018-11-10T00:50:53.111Z,991.38
2018-11-10T00:51:53.080Z,991.43
2018-11-10T00:52:53.068Z,991.45
2018-11-10T00:53:53.061Z,991.43
2018-11-10T00:54:53.043Z,991.39
2018-11-10T00:55:53.052Z,991.38
2018-11-10T00:56:53.023Z,991.32
2018-11-10T00:57:53.061Z,991.35
2018-11-10T00:58:53.006Z,991.33
2018-11-10T00:59:53.001Z,991.32
2018-11-10T01:00:53.009Z,991.27
2018-11-10T01:01:52.971Z,991.31
2018-11-10T01:02:52.959Z,991.26
2018-11-10T01:03:52.945Z,991.25
2018-11-10T01:04:52.945Z,991.33
2018-11-10T01:05:52.944Z,991.35
2018-11-10T01:06:52.914Z,991.35
2018-11-10T01:07:52.902Z,991.32
2018-11-10T01:08:52.892Z,991.33
2018-11-10T01:09:52.898Z,991.27
2018-11-10T01:10:52.892Z,991.29
2018-11-10T01:11:52.864Z,991.25
2018-11-10T01:12:52.853Z,991.23
2018-11-10T01:13:52.840Z,991.27
2018-11-10T01:14:52.852Z,991.25
2018-11-10T01:15:52.814Z,991.25
2018-11-10T01:16:52.803Z,991.24
2018-11-10T01:17:52.798Z,991.22
2018-11-10T01:18:52.787Z,991.18
2018-11-10T01:19:52.777Z,991.15
2018-11-10T01:20:52.777Z,991.20
2018-11-10T01:21:52.753Z,991.17
2018-11-10T01:22:52.745Z,991.12
2018-11-10T01:23:52.734Z,991.08
2018-11-10T01:24:52.743Z,991.09
2018-11-10T01:25:52.727Z,991.08
2018-11-10T01:26:52.696Z,991.04
2018-11-10T01:27:52.729Z,991.04
2018-11-10T01:28:52.673Z,991.03
2018-11-10T01:29:52.665Z,991.01
2018-11-10T01:30:52.682Z,991.00
2018-11-10T01:31:52.646Z,990.96
2018-11-10T01:32:52.641Z,990.90
2018-11-10T01:33:52.623Z,990.91
2018-11-10T01:34:52.613Z,990.92
2018-11-10T01:35:52.596Z,990.85
2018-11-10T01:36:52.609Z,990.93
2018-11-10T01:37:52.578Z,990.86
2018-11-10T01:38:52.569Z,990.86
2018-11-10T01:39:52.552Z,990.81
2018-11-10T01:40:52.558Z,990.80
2018-11-10T01:41:52.535Z,990.77
2018-11-10T01:42:52.522Z,990.70
2018-11-10T01:43:52.516Z,990.70
2018-11-10T01:44:52.521Z,990.72
2018-11-10T01:45:52.492Z,990.74
2018-11-10T01:46:52.476Z,990.67
2018-11-10T01:47:52.464Z,990.67
2018-11-10T01:48:52.456Z,990.66
2018-11-10T01:49:52.467Z,990.62
2018-11-10T01:50:52.436Z,990.66
2018-11-10T01:51:52.428Z,990.69
2018-11-10T01:52:52.420Z,990.60
2018-11-10T01:53:52.403Z,990.64
2018-11-10T01:54:52.409Z,990.57
2018-11-10T01:55:52.408Z,990.53
2018-11-10T01:56:52.373Z,990.59
2018-11-10T01:57:52.359Z,990.61
2018-11-10T01:58:52.348Z,990.52
2018-11-10T01:59:52.332Z,990.54
2018-11-10T02:00:52.321Z,990.46
2018-11-10T02:01:52.334Z,990.45
2018-11-10T02:02:52.305Z,990.40
2018-11-10T02:03:52.301Z,990.40
2018-11-10T02:04:52.284Z,990.33
2018-11-10T02:05:52.273Z,990.34
2018-11-10T02:06:52.392Z,990.27
2018-11-10T02:07:52.244Z,990.21
2018-11-10T02:08:52.240Z,990.23
2018-11-10T02:09:52.226Z,990.22
2018-11-10T02:10:52.217Z,990.18
2018-11-10T02:11:52.201Z,990.23
2018-11-10T02:12:52.215Z,990.26
2018-11-10T02:13:52.188Z,990.21
2018-11-10T02:14:52.172Z,990.16
2018-11-10T02:15:52.180Z,990.19
2018-11-10T02:16:52.881Z,990.18
2018-11-10T02:17:52.139Z,990.17
2018-11-10T02:18:52.124Z,990.17
2018-11-10T02:19:52.115Z,990.15
2018-11-10T02:20:52.126Z,990.14
2018-11-10T02:21:52.091Z,990.13
2018-11-10T02:22:52.087Z,990.17
2018-11-10T02:23:52.074Z,990.22
2018-11-10T02:24:52.060Z,990.17
2018-11-10T02:25:52.065Z,990.13
2018-11-10T02:26:52.051Z,990.20
2018-11-10T02:27:52.029Z,990.20
2018-11-10T02:28:52.019Z,990.21
2018-11-10T02:29:52.014Z,990.24
2018-11-10T02:30:52.010Z,990.24
2018-11-10T02:31:51.987Z,990.28
2018-11-10T02:32:51.972Z,990.19
2018-11-10T02:33:51.968Z,990.15
2018-11-10T02:34:51.961Z,990.21
2018-11-10T02:35:51.961Z,990.16
2018-11-10T02:36:51.931Z,990.16
2018-11-10T02:37:51.923Z,990.16
2018-11-10T02:38:51.956Z,990.17
2018-11-10T02:39:51.896Z,990.11
2018-11-10T02:40:51.906Z,990.12
2018-11-10T02:41:51.880Z,990.19
2018-11-10T02:42:51.865Z,990.12
2018-11-10T02:43:51.853Z,990.14
2018-11-10T02:44:51.842Z,990.09
2018-11-10T02:45:51.846Z,990.10
2018-11-10T02:46:51.843Z,990.11
2018-11-10T02:47:51.813Z,990.02
2018-11-10T02:48:51.800Z,990.01
2018-11-10T02:49:51.793Z,989.98
2018-11-10T02:50:51.792Z,989.95
2018-11-10T02:51:51.767Z,989.90
2018-11-10T02:52:51.886Z,989.85
2018-11-10T02:53:51.743Z,989.80
2018-11-10T02:54:51.738Z,989.80
2018-11-10T02:55:51.747Z,989.83
2018-11-10T02:56:51.711Z,989.85
2018-11-10T02:57:51.698Z,989.70
2018-11-10T02:58:51.711Z,989.68
2018-11-10T02:59:51.680Z,989.65
2018-11-10T03:00:51.695Z,989.69
2018-11-10T03:01:51.661Z,989.64
2018-11-10T03:02:51.644Z,989.62
2018-11-10T03:03:51.640Z,989.59
2018-11-10T03:04:51.626Z,989.58
2018-11-10T03:05:51.611Z,989.57
2018-11-10T03:06:51.629Z,989.54
2018-11-10T03:07:51.593Z,989.57
2018-11-10T03:08:51.594Z,989.48
2018-11-10T03:09:51.574Z,989.51
2018-11-10T03:10:51.652Z,989.56
2018-11-10T03:11:51.547Z,989.52
2018-11-10T03:12:51.556Z,989.59
2018-11-10T03:13:51.531Z,989.56
2018-11-10T03:14:51.515Z,989.54
2018-11-10T03:15:51.529Z,989.53
2018-11-10T03:16:51.502Z,989.51
2018-11-10T03:17:51.481Z,989.46
2018-11-10T03:18:51.476Z,989.46
2018-11-10T03:19:51.463Z,989.36
2018-11-10T03:20:51.470Z,989.41
2018-11-10T03:21:51.449Z,989.36
2018-11-10T03:22:51.427Z,989.47
2018-11-10T03:23:51.417Z,989.40
2018-11-10T03:24:51.410Z,989.44
2018-11-10T03:25:51.413Z,989.44
2018-11-10T03:26:51.389Z,989.50
2018-11-10T03:27:51.376Z,989.46
2018-11-10T03:28:51.363Z,989.51
2018-11-10T03:29:51.349Z,989.53
2018-11-10T03:30:51.345Z,989.55
2018-11-10T03:31:51.355Z,989.42
2018-11-10T03:32:51.323Z,989.40
2018-11-10T03:33:51.313Z,989.58
2018-11-10T03:34:51.294Z,989.46
2018-11-10T03:35:51.291Z,989.44
2018-11-10T03:36:51.293Z,989.45
2018-11-10T03:37:51.260Z,989.43
2018-11-10T03:38:51.256Z,989.45
2018-11-10T03:39:51.243Z,989.48
2018-11-10T03:40:51.232Z,989.38
2018-11-10T03:41:51.241Z,989.39
2018-11-10T03:42:51.205Z,989.47
2018-11-10T03:43:51.197Z,989.42
2018-11-10T03:44:51.188Z,989.43
2018-11-10T03:45:51.183Z,989.42
2018-11-10T03:46:51.179Z,989.31
2018-11-10T03:47:51.153Z,989.34
2018-11-10T03:48:51.228Z,989.35
2018-11-10T03:49:51.139Z,989.25
2018-11-10T03:50:51.124Z,989.30
2018-11-10T03:51:51.128Z,989.34
2018-11-10T03:52:51.101Z,989.30
2018-11-10T03:53:51.091Z,989.32
2018-11-10T03:54:51.074Z,989.26
2018-11-10T03:55:51.070Z,989.21
2018-11-10T03:56:51.073Z,989.25
2018-11-10T03:57:51.045Z,989.27
2018-11-10T03:58:51.036Z,989.30
2018-11-10T03:59:51.021Z,989.27
2018-11-10T04:00:51.019Z,989.25
2018-11-10T04:01:51.012Z,989.26
2018-11-10T04:02:50.991Z,989.25
2018-11-10T04:03:50.977Z,989.17
2018-11-10T04:04:50.966Z,989.16
2018-11-10T04:05:50.958Z,989.28
2018-11-10T04:06:50.962Z,989.11
2018-11-10T04:07:50.932Z,989.17
2018-11-10T04:08:50.940Z,989.14
2018-11-10T04:09:50.907Z,989.15
2018-11-10T04:10:50.903Z,989.17
2018-11-10T04:11:50.909Z,989.18
2018-11-10T04:12:50.878Z,989.14
2018-11-10T04:13:50.869Z,989.15
2018-11-10T04:14:50.851Z,989.15
2018-11-10T04:15:50.843Z,989.11
2018-11-10T04:16:50.856Z,989.09
2018-11-10T04:17:50.829Z,989.08
2018-11-10T04:18:50.812Z,989.05
2018-11-10T04:19:50.798Z,989.03
2018-11-10T04:20:50.789Z,989.06
2018-11-10T04:21:50.780Z,989.02
2018-11-10T04:22:50.788Z,988.98
2018-11-10T04:23:50.764Z,988.91
2018-11-10T04:24:50.747Z,988.92
2018-11-10T04:25:50.737Z,988.85
2018-11-10T04:26:50.744Z,988.89
2018-11-10T04:27:50.709Z,988.80
2018-11-10T04:28:50.698Z,988.84
2018-11-10T04:29:50.684Z,988.82
2018-11-10T04:30:50.681Z,988.83
2018-11-10T04:31:50.667Z,988.78
2018-11-10T04:32:50.672Z,988.86
2018-11-10T04:33:50.640Z,988.78
2018-11-10T04:34:50.641Z,988.71
2018-11-10T04:35:50.622Z,988.73
2018-11-10T04:36:50.632Z,988.70
2018-11-10T04:37:50.604Z,988.64
2018-11-10T04:38:50.594Z,988.66
2018-11-10T04:39:50.595Z,988.66
2018-11-10T04:40:50.566Z,988.68
2018-11-10T04:41:50.572Z,988.62
2018-11-10T04:42:50.549Z,988.66
2018-11-10T04:43:50.537Z,988.65
2018-11-10T04:44:50.525Z,988.54
2018-11-10T04:45:50.526Z,988.53
2018-11-10T04:46:50.521Z,988.55
2018-11-10T04:47:50.493Z,988.48
2018-11-10T04:48:50.483Z,988.51
2018-11-10T04:49:50.552Z,988.51
2018-11-10T04:50:50.453Z,988.47
2018-11-10T04:51:50.445Z,988.47
2018-11-10T04:52:50.452Z,988.50
2018-11-10T04:53:50.420Z,988.55
2018-11-10T04:54:50.442Z,988.57
2018-11-10T04:55:50.408Z,988.49
2018-11-10T04:56:50.393Z,988.38
2018-11-10T04:57:50.383Z,988.43
2018-11-10T04:58:50.368Z,988.37
2018-11-10T04:59:50.365Z,988.42
2018-11-10T05:00:50.371Z,988.40
2018-11-10T05:01:50.331Z,988.42
2018-11-10T05:02:50.329Z,988.35
2018-11-10T05:03:50.316Z,988.33
2018-11-10T05:04:50.301Z,988.33
2018-11-10T05:05:50.287Z,988.37
2018-11-10T05:06:50.303Z,988.36
2018-11-10T05:07:50.284Z,988.31
2018-11-10T05:08:50.259Z,988.30
2018-11-10T05:09:50.251Z,988.24
2018-11-10T05:10:50.241Z,988.20
2018-11-10T05:11:50.243Z,988.26
2018-11-10T05:12:50.218Z,988.22
2018-11-10T05:13:50.208Z,988.24
2018-11-10T05:14:50.188Z,988.26
2018-11-10T05:15:50.180Z,988.28
2018-11-10T05:16:50.192Z,988.25
2018-11-10T05:17:50.155Z,988.28
2018-11-10T05:18:50.170Z,988.33
2018-11-10T05:19:50.148Z,988.30
2018-11-10T05:20:50.127Z,988.23
2018-11-10T05:21:50.135Z,988.23
2018-11-10T05:22:50.107Z,988.24
2018-11-10T05:23:50.097Z,988.27
2018-11-10T05:24:50.083Z,988.32
2018-11-10T05:25:50.075Z,988.23
2018-11-10T05:26:50.074Z,988.24
2018-11-10T05:27:50.054Z,988.25
2018-11-10T05:28:50.041Z,988.25
2018-11-10T05:29:50.023Z,988.22
2018-11-10T05:30:50.021Z,988.33
2018-11-10T05:31:50.033Z,988.27
2018-11-10T05:32:49.995Z,988.24
2018-11-10T05:33:49.985Z,988.32
2018-11-10T05:34:49.970Z,988.31
2018-11-10T05:35:49.959Z,988.24
2018-11-10T05:36:49.951Z,988.33
2018-11-10T05:37:49.962Z,988.29
2018-11-10T05:38:49.933Z,988.35
2018-11-10T05:39:49.915Z,988.18
2018-11-10T05:40:49.941Z,988.27
2018-11-10T05:41:49.892Z,988.22
2018-11-10T05:42:49.921Z,988.36
2018-11-10T05:43:49.875Z,988.29
2018-11-10T05:44:49.862Z,988.30
2018-11-10T05:45:49.861Z,988.23
2018-11-10T05:46:49.836Z,988.27
2018-11-10T05:47:49.827Z,988.34
2018-11-10T05:48:49.835Z,988.39
2018-11-10T05:49:49.803Z,988.25
2018-11-10T05:50:49.799Z,988.33
2018-11-10T05:51:49.802Z,988.15
2018-11-10T05:52:49.773Z,988.29
2018-11-10T05:53:49.777Z,988.19
2018-11-10T05:54:49.756Z,988.22
2018-11-10T05:55:49.742Z,988.26
2018-11-10T05:56:49.755Z,988.26
2018-11-10T05:57:49.734Z,988.36
2018-11-10T05:58:49.723Z,988.24
2018-11-10T05:59:49.697Z,988.32
2018-11-10T06:00:49.687Z,988.18
2018-11-10T06:01:49.690Z,988.30
2018-11-10T06:02:49.668Z,988.30
2018-11-10T06:03:49.662Z,988.42
2018-11-10T06:04:49.644Z,988.42
2018-11-10T06:05:49.635Z,988.39
2018-11-10T06:06:49.636Z,988.29
2018-11-10T06:07:49.627Z,988.38
2018-11-10T06:08:49.600Z,988.34
2018-11-10T06:09:49.645Z,988.30
2018-11-10T06:10:49.573Z,988.35
2018-11-10T06:11:49.564Z,988.37
2018-11-10T06:12:49.583Z,988.34
2018-11-10T06:13:49.558Z,988.42
2018-11-10T06:14:49.537Z,988.34
2018-11-10T06:15:49.526Z,988.40
2018-11-10T06:16:49.511Z,988.47
2018-11-10T06:17:49.502Z,988.44
2018-11-10T06:18:49.632Z,988.47
2018-11-10T06:19:49.480Z,988.49
2018-11-10T06:20:49.465Z,988.46
2018-11-10T06:21:49.455Z,988.43
2018-11-10T06:22:49.449Z,988.48
2018-11-10T06:23:49.433Z,988.52
2018-11-10T06:24:49.441Z,988.48
2018-11-10T06:25:49.451Z,988.55
2018-11-10T06:26:49.409Z,988.57
2018-11-10T06:27:49.410Z,988.53
2018-11-10T06:28:49.382Z,988.49
2018-11-10T06:29:49.369Z,988.48
2018-11-10T06:30:49.359Z,988.61
2018-11-10T06:31:49.365Z,988.64
2018-11-10T06:32:49.350Z,988.62
2018-11-10T06:33:49.319Z,988.59
2018-11-10T06:34:49.323Z,988.62
2018-11-10T06:35:49.310Z,988.65
2018-11-10T06:36:49.312Z,988.67
2018-11-10T06:37:49.298Z,988.72
2018-11-10T06:38:49.264Z,988.68
2018-11-10T06:39:49.287Z,988.63
2018-11-10T06:40:49.255Z,988.72
2018-11-10T06:41:49.242Z,988.78
2018-11-10T06:42:49.241Z,988.76
2018-11-10T06:43:49.217Z,988.71
2018-11-10T06:44:49.219Z,988.78
2018-11-10T06:45:49.196Z,988.65
2018-11-10T06:46:49.223Z,988.78
2018-11-10T06:47:49.192Z,988.79
2018-11-10T06:48:49.163Z,988.81
2018-11-10T06:49:49.160Z,988.86
2018-11-10T06:50:49.132Z,988.82
2018-11-10T06:51:49.126Z,988.88
2018-11-10T06:52:49.174Z,988.83
2018-11-10T06:53:49.119Z,988.81
2018-11-10T06:54:49.097Z,988.77
2018-11-10T06:55:49.087Z,988.83
2018-11-10T06:56:49.071Z,988.85
2018-11-10T06:57:49.057Z,988.77
2018-11-10T06:58:49.074Z,988.76
2018-11-10T06:59:49.047Z,988.94
2018-11-10T07:00:49.032Z,988.72
2018-11-10T07:01:49.023Z,988.71
2018-11-10T07:02:49.002Z,988.75
2018-11-10T07:03:49.013Z,988.79
2018-11-10T07:04:48.982Z,988.90
2018-11-10T07:05:48.973Z,988.70
2018-11-10T07:06:48.966Z,988.77
2018-11-10T07:07:48.953Z,988.71
2018-11-10T07:08:48.964Z,988.85
2018-11-10T07:09:48.934Z,988.70
2018-11-10T07:10:48.919Z,988.73
2018-11-10T07:11:48.909Z,988.73
2018-11-10T07:12:48.901Z,988.73
2018-11-10T07:13:48.912Z,988.77
2018-11-10T07:14:48.939Z,988.74
2018-11-10T07:15:48.901Z,988.78
2018-11-10T07:16:48.893Z,988.77
2018-11-10T07:17:48.892Z,988.75
2018-11-10T07:18:48.846Z,988.78
2018-11-10T07:19:48.850Z,988.75
2018-11-10T07:20:48.817Z,988.77
2018-11-10T07:21:48.816Z,988.80
2018-11-10T07:22:48.812Z,988.78
2018-11-10T07:23:48.788Z,988.86
2018-11-10T07:24:48.778Z,988.83
2018-11-10T07:25:48.768Z,988.84
2018-11-10T07:26:48.748Z,988.85
2018-11-10T07:27:48.734Z,988.98
2018-11-10T07:28:48.851Z,988.87
2018-11-10T07:29:48.708Z,988.89
2018-11-10T07:30:48.724Z,988.98
2018-11-10T07:31:48.709Z,989.05
2018-11-10T07:32:48.699Z,988.99
2018-11-10T07:33:48.701Z,988.94
2018-11-10T07:34:48.653Z,988.92
2018-11-10T07:35:48.694Z,988.95
2018-11-10T07:36:48.633Z,988.94
2018-11-10T07:37:48.627Z,988.88
2018-11-10T07:38:48.634Z,988.91
2018-11-10T07:39:48.605Z,988.98
2018-11-10T07:40:48.609Z,988.92
2018-11-10T07:41:48.599Z,989.02
2018-11-10T07:42:48.599Z,989.00
2018-11-10T07:43:48.595Z,988.99
2018-11-10T07:44:48.549Z,989.03
2018-11-10T07:45:48.542Z,989.01
2018-11-10T07:46:48.527Z,989.09
2018-11-10T07:47:48.515Z,989.06
2018-11-10T07:48:48.522Z,989.00
2018-11-10T07:49:48.492Z,989.09
2018-11-10T07:50:48.488Z,989.18
2018-11-10T07:51:48.485Z,989.15
2018-11-10T07:52:48.464Z,989.20
2018-11-10T07:53:48.474Z,989.20
2018-11-10T07:54:48.435Z,989.23
2018-11-10T07:55:48.463Z,989.10
2018-11-10T07:56:48.421Z,989.16
2018-11-10T07:57:48.407Z,989.03
2018-11-10T07:58:48.417Z,989.07
2018-11-10T07:59:48.396Z,989.14
2018-11-10T08:00:48.375Z,989.13
2018-11-10T08:01:48.364Z,989.08
2018-11-10T08:02:48.362Z,989.18
2018-11-10T08:03:48.377Z,989.11
2018-11-10T08:04:48.375Z,989.14
2018-11-10T08:05:48.323Z,989.07
2018-11-10T08:06:48.323Z,989.19
2018-11-10T08:07:48.303Z,989.19
2018-11-10T08:08:48.289Z,989.12
2018-11-10T08:09:48.274Z,989.09
2018-11-10T08:10:48.268Z,989.08
2018-11-10T08:11:48.311Z,989.04
2018-11-10T08:12:48.243Z,989.08
2018-11-10T08:13:48.255Z,989.06
2018-11-10T08:14:48.219Z,989.04
2018-11-10T08:15:48.241Z,988.98
2018-11-10T08:16:48.209Z,989.02
2018-11-10T08:17:48.223Z,989.07
2018-11-10T08:18:48.196Z,989.02
2018-11-10T08:19:48.188Z,988.96
2018-11-10T08:20:48.154Z,989.00
2018-11-10T08:21:48.140Z,989.00
2018-11-10T08:22:48.149Z,988.98
2018-11-10T08:23:48.145Z,989.00
2018-11-10T08:24:48.145Z,989.01
2018-11-10T08:25:48.129Z,988.97
2018-11-10T08:26:48.085Z,988.99
2018-11-10T08:27:48.094Z,989.07
2018-11-10T08:28:48.070Z,988.96
2018-11-10T08:29:48.053Z,988.96
2018-11-10T08:30:48.050Z,989.01
2018-11-10T08:31:48.060Z,988.91
2018-11-10T08:32:48.028Z,989.01
2018-11-10T08:33:48.008Z,989.00
2018-11-10T08:34:48.003Z,989.01
2018-11-10T08:35:47.991Z,988.96
2018-11-10T08:36:47.980Z,988.97
2018-11-10T08:37:47.987Z,989.07
2018-11-10T08:38:48.012Z,989.05
2018-11-10T08:39:47.945Z,989.06
2018-11-10T08:40:47.936Z,988.98
2018-11-10T08:41:47.920Z,989.03
2018-11-10T08:42:47.917Z,989.08
2018-11-10T08:43:47.922Z,989.04
2018-11-10T08:44:47.889Z,989.06
2018-11-10T08:45:47.901Z,989.01
2018-11-10T08:46:47.894Z,989.05
2018-11-10T08:47:47.878Z,989.10
2018-11-10T08:48:47.889Z,989.12
2018-11-10T08:49:47.838Z,989.10
2018-11-10T08:50:47.820Z,989.11
2018-11-10T08:51:47.814Z,989.03
2018-11-10T08:52:47.801Z,989.10
2018-11-10T08:53:47.787Z,989.10
2018-11-10T08:54:47.799Z,989.13
2018-11-10T08:55:47.776Z,989.09
2018-11-10T08:56:47.763Z,989.13
2018-11-10T08:57:47.752Z,989.05
2018-11-10T08:58:47.750Z,989.08
2018-11-10T08:59:47.724Z,989.10
2018-11-10T09:00:47.715Z,989.07
2018-11-10T09:01:47.698Z,989.08
2018-11-10T09:02:47.694Z,989.04
2018-11-10T09:03:47.700Z,989.14
2018-11-10T09:04:47.669Z,989.16
2018-11-10T09:05:47.672Z,989.08
2018-11-10T09:06:47.689Z,989.19
2018-11-10T09:07:47.636Z,989.20
2018-11-10T09:08:47.652Z,989.24
2018-11-10T09:09:47.620Z,989.28
2018-11-10T09:10:47.598Z,989.24
2018-11-10T09:11:47.592Z,989.24
2018-11-10T09:12:47.578Z,989.23
2018-11-10T09:13:47.583Z,989.35
2018-11-10T09:14:47.564Z,989.30
2018-11-10T09:15:47.549Z,989.32
2018-11-10T09:16:47.548Z,989.32
2018-11-10T09:17:47.604Z,989.40
2018-11-10T09:18:47.535Z,989.44
2018-11-10T09:19:47.510Z,989.36
2018-11-10T09:20:47.492Z,989.43
2018-11-10T09:21:47.502Z,989.42
2018-11-10T09:22:47.467Z,989.32
2018-11-10T09:23:47.475Z,989.33
2018-11-10T09:24:47.446Z,989.37
2018-11-10T09:25:47.435Z,989.31
2018-11-10T09:26:47.429Z,989.31
2018-11-10T09:27:47.419Z,989.31
2018-11-10T09:28:47.461Z,989.32
2018-11-10T09:29:47.396Z,989.30
2018-11-10T09:30:47.495Z,989.34
2018-11-10T09:31:47.375Z,989.40
2018-11-10T09:32:47.377Z,989.38
2018-11-10T09:33:47.347Z,989.47
2018-11-10T09:34:47.363Z,989.43
2018-11-10T09:35:47.328Z,989.41
2018-11-10T09:36:47.314Z,989.46
2018-11-10T09:37:47.330Z,989.42
2018-11-10T09:38:47.300Z,989.45
2018-11-10T09:39:47.307Z,989.31
2018-11-10T09:40:47.284Z,989.43
2018-11-10T09:41:47.261Z,989.50
2018-11-10T09:42:47.302Z,989.48
2018-11-10T09:43:47.254Z,989.51
2018-11-10T09:44:47.243Z,989.48
2018-11-10T09:45:47.215Z,989.53
2018-11-10T09:46:47.209Z,989.47
2018-11-10T09:47:47.197Z,989.51
2018-11-10T09:48:47.222Z,989.47
2018-11-10T09:49:47.236Z,989.49
2018-11-10T09:50:47.220Z,989.50
2018-11-10T09:51:47.168Z,989.48
2018-11-10T09:52:47.156Z,989.44
2018-11-10T09:53:47.173Z,989.53
2018-11-10T09:54:47.133Z,989.54
2018-11-10T09:55:47.123Z,989.52
2018-11-10T09:56:47.096Z,989.62
2018-11-10T09:57:47.083Z,989.57
2018-11-10T09:58:47.095Z,989.52
2018-11-10T09:59:47.087Z,989.47
2018-11-10T10:00:47.055Z,989.37
2018-11-10T10:01:47.286Z,989.40
2018-11-10T10:02:47.457Z,989.40
2018-11-10T10:03:47.018Z,989.32
2018-11-10T10:04:47.034Z,989.35
2018-11-10T10:05:47.002Z,989.27
2018-11-10T10:06:46.989Z,989.36
2018-11-10T10:07:46.988Z,989.28
2018-11-10T10:08:47.099Z,989.22
2018-11-10T10:09:46.960Z,989.27
2018-11-10T10:10:46.997Z,989.32
2018-11-10T10:11:46.938Z,989.25
2018-11-10T10:12:46.925Z,989.26
2018-11-10T10:13:46.916Z,989.34
2018-11-10T10:14:47.085Z,989.31
2018-11-10T10:15:46.889Z,989.25
2018-11-10T10:16:46.962Z,989.29
2018-11-10T10:17:46.876Z,989.26
2018-11-10T10:18:46.858Z,989.24
2018-11-10T10:19:46.867Z,989.26
2018-11-10T10:20:46.889Z,989.31
2018-11-10T10:21:46.905Z,989.31
2018-11-10T10:22:46.812Z,989.24
2018-11-10T10:23:46.804Z,989.28
2018-11-10T10:24:46.820Z,989.32
2018-11-10T10:25:46.784Z,989.30
2018-11-10T10:26:46.768Z,989.24
2018-11-10T10:27:46.754Z,989.24
2018-11-10T10:28:46.789Z,989.23
2018-11-10T10:29:46.768Z,989.36
2018-11-10T10:30:46.741Z,989.30
2018-11-10T10:31:46.717Z,989.21
2018-11-10T10:32:46.723Z,989.18
2018-11-10T10:33:46.694Z,989.25
2018-11-10T10:34:46.872Z,989.17
2018-11-10T10:35:46.668Z,989.20
2018-11-10T10:36:46.660Z,989.18
2018-11-10T10:37:46.655Z,989.18
2018-11-10T10:38:46.671Z,989.17
2018-11-10T10:39:46.702Z,989.23
2018-11-10T10:40:46.614Z,989.06
2018-11-10T10:41:46.627Z,989.13
2018-11-10T10:42:46.622Z,989.13
2018-11-10T10:43:46.586Z,989.16
2018-11-10T10:44:46.593Z,989.08
2018-11-10T10:45:46.561Z,989.12
2018-11-10T10:46:46.551Z,989.12
2018-11-10T10:47:46.537Z,989.16
2018-11-10T10:48:46.767Z,989.15
2018-11-10T10:49:46.547Z,989.14
2018-11-10T10:50:46.520Z,989.16
2018-11-10T10:51:46.541Z,989.10
2018-11-10T10:52:46.501Z,989.02
2018-11-10T10:53:46.476Z,989.13
2018-11-10T10:54:46.486Z,989.04
2018-11-10T10:55:46.503Z,989.03
2018-11-10T10:56:46.448Z,989.11
2018-11-10T10:57:46.431Z,989.06
2018-11-10T10:58:46.420Z,989.06
2018-11-10T10:59:46.421Z,989.05
2018-11-10T11:00:46.396Z,989.09
2018-11-10T11:01:46.383Z,989.08
2018-11-10T11:02:46.447Z,989.03
2018-11-10T11:03:46.524Z,989.10
2018-11-10T11:04:46.682Z,989.07
2018-11-10T11:05:46.369Z,989.15
2018-11-10T11:06:46.377Z,989.11
2018-11-10T11:07:46.318Z,989.13
2018-11-10T11:08:46.355Z,989.11
2018-11-10T11:09:46.474Z,989.16
2018-11-10T11:10:46.296Z,989.04
2018-11-10T11:11:46.322Z,989.08
2018-11-10T11:12:46.296Z,989.02
2018-11-10T11:13:46.257Z,989.07
2018-11-10T11:14:46.250Z,989.13
2018-11-10T11:15:46.280Z,989.12
2018-11-10T11:16:46.227Z,989.11
2018-11-10T11:17:46.211Z,989.15
2018-11-10T11:18:46.200Z,989.13
2018-11-10T11:19:46.203Z,989.15
2018-11-10T11:20:46.198Z,989.13
2018-11-10T11:21:46.175Z,989.10
2018-11-10T11:22:46.162Z,989.00
2018-11-10T11:23:46.158Z,989.02
2018-11-10T11:24:46.147Z,989.05
2018-11-10T11:25:46.155Z,989.16
2018-11-10T11:26:46.115Z,989.09
2018-11-10T11:27:46.098Z,989.06
2018-11-10T11:28:46.094Z,989.04
2018-11-10T11:29:46.089Z,989.04
2018-11-10T11:30:46.135Z,989.08
2018-11-10T11:31:46.055Z,989.00
2018-11-10T11:32:46.046Z,988.93
2018-11-10T11:33:46.135Z,988.97
2018-11-10T11:34:46.031Z,989.00
2018-11-10T11:35:46.039Z,988.93
2018-11-10T11:36:46.019Z,988.93
2018-11-10T11:37:45.993Z,988.94
2018-11-10T11:38:45.991Z,988.98
2018-11-10T11:39:45.968Z,988.97
2018-11-10T11:40:45.973Z,988.94
2018-11-10T11:41:46.049Z,988.92
2018-11-10T11:42:45.943Z,988.96
2018-11-10T11:43:45.931Z,988.82
2018-11-10T11:44:45.911Z,988.83
2018-11-10T11:45:45.924Z,988.87
2018-11-10T11:46:45.899Z,988.88
2018-11-10T11:47:45.906Z,988.91
2018-11-10T11:48:45.877Z,988.88
2018-11-10T11:49:45.933Z,988.86
2018-11-10T11:50:45.859Z,988.82
2018-11-10T11:51:45.834Z,988.87
2018-11-10T11:52:45.843Z,988.86
2018-11-10T11:53:45.828Z,988.84
2018-11-10T11:54:45.837Z,988.82
2018-11-10T11:55:45.797Z,988.82
2018-11-10T11:56:45.941Z,988.85
2018-11-10T11:57:46.131Z,988.90
2018-11-10T11:58:46.113Z,988.80
2018-11-10T11:59:45.751Z,988.84
2018-11-10T12:00:46.701Z,988.87
2018-11-10T12:01:46.181Z,988.84
2018-11-10T12:02:45.783Z,988.79
2018-11-10T12:03:45.804Z,988.85
2018-11-10T12:04:45.706Z,988.88
2018-11-10T12:05:45.710Z,988.77
2018-11-10T12:06:45.713Z,988.81
2018-11-10T12:07:45.681Z,988.82
2018-11-10T12:08:45.672Z,988.79
2018-11-10T12:09:45.691Z,988.81
2018-11-10T12:10:45.675Z,988.84
2018-11-10T12:11:45.643Z,988.81
2018-11-10T12:12:45.760Z,988.83
2018-11-10T12:13:45.608Z,988.87
2018-11-10T12:14:45.625Z,988.76
2018-11-10T12:15:45.636Z,988.73
2018-11-10T12:16:45.719Z,988.79
2018-11-10T12:17:45.570Z,988.77
2018-11-10T12:18:45.549Z,988.75
2018-11-10T12:19:45.535Z,988.80
2018-11-10T12:20:45.557Z,988.83
2018-11-10T12:21:45.564Z,988.82
2018-11-10T12:22:45.503Z,988.73
2018-11-10T12:23:45.485Z,988.76
2018-11-10T12:24:45.478Z,988.77
2018-11-10T12:25:45.465Z,988.70
2018-11-10T12:26:45.779Z,988.77
2018-11-10T12:27:45.650Z,988.77
2018-11-10T12:28:45.454Z,988.70